sensor_id;sensor_type;location;lat;lon;timestamp;pressure;altitude;pressure_sealevel;temperature;humidity
71938;BME280;59810;48.800;9.086;2023-04-08T00:00:46;97891.34;;;7.25;93.92
71938;BME280;59810;48.800;9.086;2023-04-08T00:03:11;97885.16;;;7.25;94.08
71938;BME280;59810;48.800;9.086;2023-04-08T00:05:36;97887.00;;;7.24;94.15
71938;BME280;59810;48.800;9.086;2023-04-08T00:08:02;97895.44;;;7.28;93.83
71938;BME280;59810;48.800;9.086;2023-04-08T00:10:27;97886.34;;;7.29;93.23
71938;BME280;59810;48.800;9.086;2023-04-08T00:12:52;97895.91;;;7.25;93.78
71938;BME280;59810;48.800;9.086;2023-04-08T00:15:19;97897.53;;;7.26;94.14
71938;BME280;59810;48.800;9.086;2023-04-08T00:17:44;97893.88;;;7.20;94.51
71938;BME280;59810;48.800;9.086;2023-04-08T00:20:10;97893.50;;;7.16;94.91
71938;BME280;59810;48.800;9.086;2023-04-08T00:22:36;97888.13;;;7.16;94.99
71938;BME280;59810;48.800;9.086;2023-04-08T00:25:02;97891.41;;;7.18;94.51
71938;BME280;59810;48.800;9.086;2023-04-08T00:27:30;97892.69;;;7.16;94.57
71938;BME280;59810;48.800;9.086;2023-04-08T00:29:56;97891.88;;;7.15;94.64
71938;BME280;59810;48.800;9.086;2023-04-08T00:32:21;97894.75;;;7.14;94.42
71938;BME280;59810;48.800;9.086;2023-04-08T00:34:49;97896.00;;;7.11;94.86
71938;BME280;59810;48.800;9.086;2023-04-08T00:37:15;97896.81;;;7.12;95.20
71938;BME280;59810;48.800;9.086;2023-04-08T00:39:43;97891.88;;;7.15;94.62
71938;BME280;59810;48.800;9.086;2023-04-08T00:42:08;97887.72;;;7.13;94.32
71938;BME280;59810;48.800;9.086;2023-04-08T00:44:34;97894.97;;;7.12;94.32
71938;BME280;59810;48.800;9.086;2023-04-08T00:47:03;97896.19;;;7.16;93.88
71938;BME280;59810;48.800;9.086;2023-04-08T00:49:31;97903.63;;;7.14;93.87
71938;BME280;59810;48.800;9.086;2023-04-08T00:51:56;97903.00;;;7.12;94.21
71938;BME280;59810;48.800;9.086;2023-04-08T00:54:21;97905.09;;;7.10;93.74
71938;BME280;59810;48.800;9.086;2023-04-08T00:56:49;97909.66;;;7.10;94.01
71938;BME280;59810;48.800;9.086;2023-04-08T00:59:16;97910.91;;;7.07;94.03
71938;BME280;59810;48.800;9.086;2023-04-08T01:01:58;97913.59;;;7.07;94.14
71938;BME280;59810;48.800;9.086;2023-04-08T01:04:54;97910.31;;;7.05;94.13
71938;BME280;59810;48.800;9.086;2023-04-08T01:07:26;97913.38;;;7.09;93.23
71938;BME280;59810;48.800;9.086;2023-04-08T01:09:55;97904.50;;;7.08;93.36
71938;BME280;59810;48.800;9.086;2023-04-08T01:12:28;97911.97;;;7.06;93.36
71938;BME280;59810;48.800;9.086;2023-04-08T01:15:03;97907.03;;;7.03;93.94
71938;BME280;59810;48.800;9.086;2023-04-08T01:17:30;97904.78;;;7.00;94.10
71938;BME280;59810;48.800;9.086;2023-04-08T01:19:56;97904.63;;;6.95;94.13
71938;BME280;59810;48.800;9.086;2023-04-08T01:25:33;97908.13;;;6.96;94.39
71938;BME280;59810;48.800;9.086;2023-04-08T01:28:01;97911.03;;;6.94;94.52
71938;BME280;59810;48.800;9.086;2023-04-08T01:30:28;97909.84;;;6.90;94.73
71938;BME280;59810;48.800;9.086;2023-04-08T01:32:58;97908.19;;;6.89;94.87
71938;BME280;59810;48.800;9.086;2023-04-08T01:35:27;97906.78;;;6.86;95.19
71938;BME280;59810;48.800;9.086;2023-04-08T01:37:55;97907.38;;;6.89;94.73
71938;BME280;59810;48.800;9.086;2023-04-08T01:40:21;97907.38;;;6.89;95.00
71938;BME280;59810;48.800;9.086;2023-04-08T01:42:48;97903.66;;;6.90;94.63
71938;BME280;59810;48.800;9.086;2023-04-08T01:45:17;97909.63;;;6.92;94.71
71938;BME280;59810;48.800;9.086;2023-04-08T01:47:44;97904.69;;;6.89;94.87
71938;BME280;59810;48.800;9.086;2023-04-08T01:50:13;97897.91;;;6.86;94.78
71938;BME280;59810;48.800;9.086;2023-04-08T01:52:40;97907.22;;;6.83;95.42
71938;BME280;59810;48.800;9.086;2023-04-08T01:55:07;97905.38;;;6.77;95.31
71938;BME280;59810;48.800;9.086;2023-04-08T01:57:36;97902.25;;;6.80;95.45
71938;BME280;59810;48.800;9.086;2023-04-08T02:00:07;97895.47;;;6.78;95.16
71938;BME280;59810;48.800;9.086;2023-04-08T02:02:35;97894.66;;;6.77;95.74
71938;BME280;59810;48.800;9.086;2023-04-08T02:05:01;97895.09;;;6.74;96.00
71938;BME280;59810;48.800;9.086;2023-04-08T02:07:26;97899.03;;;6.72;95.74
71938;BME280;59810;48.800;9.086;2023-04-08T02:09:51;97901.78;;;6.65;96.21
71938;BME280;59810;48.800;9.086;2023-04-08T02:12:17;97903.25;;;6.61;96.60
71938;BME280;59810;48.800;9.086;2023-04-08T02:14:43;97907.81;;;6.61;96.79
71938;BME280;59810;48.800;9.086;2023-04-08T02:17:15;97910.91;;;6.58;96.63
71938;BME280;59810;48.800;9.086;2023-04-08T02:25:03;97907.88;;;6.47;97.05
71938;BME280;59810;48.800;9.086;2023-04-08T02:27:33;97902.34;;;6.42;96.90
71938;BME280;59810;48.800;9.086;2023-04-08T02:30:02;97911.66;;;6.40;97.01
71938;BME280;59810;48.800;9.086;2023-04-08T02:32:32;97911.69;;;6.33;96.96
71938;BME280;59810;48.800;9.086;2023-04-08T02:34:59;97904.53;;;6.27;97.55
71938;BME280;59810;48.800;9.086;2023-04-08T02:37:27;97907.84;;;6.22;97.63
71938;BME280;59810;48.800;9.086;2023-04-08T02:39:52;97905.81;;;6.18;97.87
71938;BME280;59810;48.800;9.086;2023-04-08T02:42:18;97909.13;;;6.13;97.58
71938;BME280;59810;48.800;9.086;2023-04-08T02:44:43;97909.53;;;6.10;97.71
71938;BME280;59810;48.800;9.086;2023-04-08T02:47:08;97907.50;;;6.06;97.68
71938;BME280;59810;48.800;9.086;2023-04-08T02:49:34;97908.16;;;6.01;98.21
71938;BME280;59810;48.800;9.086;2023-04-08T02:51:59;97903.00;;;6.00;98.29
71938;BME280;59810;48.800;9.086;2023-04-08T02:54:24;97911.47;;;5.97;98.09
71938;BME280;59810;48.800;9.086;2023-04-08T02:56:50;97905.53;;;5.95;98.11
71938;BME280;59810;48.800;9.086;2023-04-08T02:59:15;97910.47;;;5.91;98.36
71938;BME280;59810;48.800;9.086;2023-04-08T03:01:48;97905.13;;;5.91;98.63
71938;BME280;59810;48.800;9.086;2023-04-08T03:04:14;97902.63;;;5.96;98.79
71938;BME280;59810;48.800;9.086;2023-04-08T03:06:39;97909.41;;;5.99;98.34
71938;BME280;59810;48.800;9.086;2023-04-08T03:09:07;97904.22;;;6.04;97.86
71938;BME280;59810;48.800;9.086;2023-04-08T03:11:32;97909.38;;;6.05;97.27
71938;BME280;59810;48.800;9.086;2023-04-08T03:13:58;97905.88;;;6.05;96.96
71938;BME280;59810;48.800;9.086;2023-04-08T03:16:23;97903.41;;;6.03;96.95
71938;BME280;59810;48.800;9.086;2023-04-08T03:18:49;97900.72;;;6.03;96.70
71938;BME280;59810;48.800;9.086;2023-04-08T03:21:15;97903.00;;;6.00;96.73
71938;BME280;59810;48.800;9.086;2023-04-08T03:23:40;97899.28;;;6.01;96.61
71938;BME280;59810;48.800;9.086;2023-04-08T03:26:06;97903.44;;;5.97;96.63
71938;BME280;59810;48.800;9.086;2023-04-08T03:28:31;97899.50;;;5.99;96.60
71938;BME280;59810;48.800;9.086;2023-04-08T03:30:56;97901.16;;;6.00;96.22
71938;BME280;59810;48.800;9.086;2023-04-08T03:33:22;97904.22;;;6.04;96.25
71938;BME280;59810;48.800;9.086;2023-04-08T03:35:47;97891.44;;;6.06;96.10
71938;BME280;59810;48.800;9.086;2023-04-08T03:38:12;97894.72;;;6.08;95.64
71938;BME280;59810;48.800;9.086;2023-04-08T03:40:38;97902.31;;;6.11;95.59
71938;BME280;59810;48.800;9.086;2023-04-08T03:43:03;97895.09;;;6.11;95.33
71938;BME280;59810;48.800;9.086;2023-04-08T03:45:30;97906.22;;;6.15;95.22
71938;BME280;59810;48.800;9.086;2023-04-08T03:47:56;97906.88;;;6.10;95.24
71938;BME280;59810;48.800;9.086;2023-04-08T03:50:21;97906.47;;;6.07;96.41
71938;BME280;59810;48.800;9.086;2023-04-08T03:52:49;97904.84;;;6.06;97.08
71938;BME280;59810;48.800;9.086;2023-04-08T03:55:17;97908.38;;;6.00;97.67
71938;BME280;59810;48.800;9.086;2023-04-08T03:57:43;97912.09;;;5.99;97.89
71938;BME280;59810;48.800;9.086;2023-04-08T04:00:09;97921.94;;;6.05;97.92
71938;BME280;59810;48.800;9.086;2023-04-08T04:02:37;97913.25;;;6.09;97.69
71938;BME280;59810;48.800;9.086;2023-04-08T04:05:03;97912.00;;;6.12;96.52
71938;BME280;59810;48.800;9.086;2023-04-08T04:07:30;97914.69;;;6.12;95.86
71938;BME280;59810;48.800;9.086;2023-04-08T04:09:56;97918.81;;;6.14;96.49
71938;BME280;59810;48.800;9.086;2023-04-08T04:12:22;97918.38;;;6.17;95.87
71938;BME280;59810;48.800;9.086;2023-04-08T04:14:47;97920.03;;;6.18;95.88
71938;BME280;59810;48.800;9.086;2023-04-08T04:17:13;97920.88;;;6.19;95.89
71938;BME280;59810;48.800;9.086;2023-04-08T04:19:38;97925.19;;;6.20;95.91
71938;BME280;59810;48.800;9.086;2023-04-08T04:22:03;97921.69;;;6.19;96.15
71938;BME280;59810;48.800;9.086;2023-04-08T04:24:29;97917.38;;;6.18;95.95
71938;BME280;59810;48.800;9.086;2023-04-08T04:26:54;97912.81;;;6.19;96.05
71938;BME280;59810;48.800;9.086;2023-04-08T04:29:19;97925.19;;;6.20;96.40
71938;BME280;59810;48.800;9.086;2023-04-08T04:31:47;97918.19;;;6.19;96.08
71938;BME280;59810;48.800;9.086;2023-04-08T04:34:13;97921.47;;;6.21;96.33
71938;BME280;59810;48.800;9.086;2023-04-08T04:36:38;97920.22;;;6.23;96.03
71938;BME280;59810;48.800;9.086;2023-04-08T04:39:03;97921.38;;;6.34;98.93
71938;BME280;59810;48.800;9.086;2023-04-08T04:41:29;97924.50;;;6.31;96.51
71938;BME280;59810;48.800;9.086;2023-04-08T04:43:54;97923.88;;;6.29;96.19
71938;BME280;59810;48.800;9.086;2023-04-08T04:46:19;97921.59;;;6.33;95.14
71938;BME280;59810;48.800;9.086;2023-04-08T04:48:45;97925.75;;;6.29;95.34
71938;BME280;59810;48.800;9.086;2023-04-08T04:51:10;97928.66;;;6.27;95.74
71938;BME280;59810;48.800;9.086;2023-04-08T04:53:36;97927.59;;;6.28;95.79
71938;BME280;59810;48.800;9.086;2023-04-08T04:56:01;97926.56;;;6.29;95.48
71938;BME280;59810;48.800;9.086;2023-04-08T04:58:27;97929.03;;;6.31;95.41
71938;BME280;59810;48.800;9.086;2023-04-08T05:00:52;97934.63;;;6.29;95.68
71938;BME280;59810;48.800;9.086;2023-04-08T05:03:18;97928.81;;;6.32;95.59
71938;BME280;59810;48.800;9.086;2023-04-08T05:05:43;97930.91;;;6.30;95.27
71938;BME280;59810;48.800;9.086;2023-04-08T05:08:08;97938.34;;;6.28;95.46
71938;BME280;59810;48.800;9.086;2023-04-08T05:10:33;97939.59;;;6.26;95.25
71938;BME280;59810;48.800;9.086;2023-04-08T05:12:59;97937.13;;;6.24;95.23
71938;BME280;59810;48.800;9.086;2023-04-08T05:15:27;97941.88;;;6.22;95.64
71938;BME280;59810;48.800;9.086;2023-04-08T05:17:52;97944.78;;;6.14;94.97
71938;BME280;59810;48.800;9.086;2023-04-08T05:20:17;97954.91;;;6.12;96.19
71938;BME280;59810;48.800;9.086;2023-04-08T05:22:45;97950.78;;;6.09;96.29
71938;BME280;59810;48.800;9.086;2023-04-08T05:25:10;97960.09;;;6.07;97.15
71938;BME280;59810;48.800;9.086;2023-04-08T05:27:36;97952.03;;;6.07;96.80
71938;BME280;59810;48.800;9.086;2023-04-08T05:30:01;97955.75;;;6.06;97.02
71938;BME280;59810;48.800;9.086;2023-04-08T05:32:29;97963.19;;;6.04;96.92
71938;BME280;59810;48.800;9.086;2023-04-08T05:34:54;97966.47;;;6.06;97.34
71938;BME280;59810;48.800;9.086;2023-04-08T05:37:20;97968.13;;;6.07;97.34
71938;BME280;59810;48.800;9.086;2023-04-08T05:39:45;97968.13;;;6.07;96.78
71938;BME280;59810;48.800;9.086;2023-04-08T05:42:10;97972.22;;;6.09;97.19
71938;BME280;59810;48.800;9.086;2023-04-08T05:44:38;97975.53;;;6.11;97.07
71938;BME280;59810;48.800;9.086;2023-04-08T05:47:05;97981.50;;;6.13;96.72
71938;BME280;59810;48.800;9.086;2023-04-08T05:49:30;97986.84;;;6.20;96.24
71938;BME280;59810;48.800;9.086;2023-04-08T05:51:56;97985.22;;;6.19;96.17
71938;BME280;59810;48.800;9.086;2023-04-08T05:54:21;97985.81;;;6.21;96.01
71938;BME280;59810;48.800;9.086;2023-04-08T05:56:46;97986.41;;;6.23;95.81
71938;BME280;59810;48.800;9.086;2023-04-08T05:59:12;97989.09;;;6.23;95.73
71938;BME280;59810;48.800;9.086;2023-04-08T06:01:38;97986.81;;;6.27;95.21
71938;BME280;59810;48.800;9.086;2023-04-08T06:04:03;97990.75;;;6.24;96.02
71938;BME280;59810;48.800;9.086;2023-04-08T06:06:29;97993.22;;;6.26;95.66
71938;BME280;59810;48.800;9.086;2023-04-08T06:08:54;97995.69;;;6.27;95.63
71938;BME280;59810;48.800;9.086;2023-04-08T06:11:20;97996.28;;;6.29;96.22
71938;BME280;59810;48.800;9.086;2023-04-08T06:13:45;97996.69;;;6.33;95.83
71938;BME280;59810;48.800;9.086;2023-04-08T06:16:12;98000.16;;;6.40;95.76
71938;BME280;59810;48.800;9.086;2023-04-08T06:18:38;97996.22;;;6.42;95.42
71938;BME280;59810;48.800;9.086;2023-04-08T06:21:03;97995.75;;;6.52;94.28
71938;BME280;59810;48.800;9.086;2023-04-08T06:23:28;98007.09;;;6.54;94.76
71938;BME280;59810;48.800;9.086;2023-04-08T06:25:56;98001.53;;;6.55;94.25
71938;BME280;59810;48.800;9.086;2023-04-08T06:28:23;98003.72;;;6.65;93.70
71938;BME280;59810;48.800;9.086;2023-04-08T06:30:49;98007.66;;;6.63;94.39
71938;BME280;59810;48.800;9.086;2023-04-08T06:33:17;97995.38;;;6.80;97.69
71938;BME280;59810;48.800;9.086;2023-04-08T06:35:42;98006.50;;;6.83;95.55
71938;BME280;59810;48.800;9.086;2023-04-08T06:38:07;98012.72;;;6.84;93.43
71938;BME280;59810;48.800;9.086;2023-04-08T06:40:33;98011.06;;;6.83;93.00
71938;BME280;59810;48.800;9.086;2023-04-08T06:42:58;98018.25;;;6.82;92.63
71938;BME280;59810;48.800;9.086;2023-04-08T06:45:23;98013.53;;;6.78;92.16
71938;BME280;59810;48.800;9.086;2023-04-08T06:47:50;98023.25;;;6.79;92.82
71938;BME280;59810;48.800;9.086;2023-04-08T06:50:20;98013.38;;;6.73;92.98
71938;BME280;59810;48.800;9.086;2023-04-08T06:52:45;98018.91;;;6.78;92.88
71938;BME280;59810;48.800;9.086;2023-04-08T06:55:13;98016.84;;;6.80;92.13
71938;BME280;59810;48.800;9.086;2023-04-08T06:57:38;98019.94;;;6.77;92.50
71938;BME280;59810;48.800;9.086;2023-04-08T07:00:07;98026.78;;;6.73;92.59
71938;BME280;59810;48.800;9.086;2023-04-08T07:02:33;98029.03;;;6.76;92.54
71938;BME280;59810;48.800;9.086;2023-04-08T07:04:58;98030.50;;;6.72;92.48
71938;BME280;59810;48.800;9.086;2023-04-08T07:07:26;98028.22;;;6.75;92.29
71938;BME280;59810;48.800;9.086;2023-04-08T07:09:51;98035.00;;;6.78;92.21
71938;BME280;59810;48.800;9.086;2023-04-08T07:12:16;98029.22;;;6.81;92.13
71938;BME280;59810;48.800;9.086;2023-04-08T07:14:42;98033.53;;;6.89;91.83
71938;BME280;59810;48.800;9.086;2023-04-08T07:17:12;98032.03;;;6.93;92.06
71938;BME280;59810;48.800;9.086;2023-04-08T07:19:37;98039.84;;;7.01;90.53
71938;BME280;59810;48.800;9.086;2023-04-08T07:22:03;98042.72;;;6.99;91.08
71938;BME280;59810;48.800;9.086;2023-04-08T07:24:28;98043.88;;;7.10;90.98
71938;BME280;59810;48.800;9.086;2023-04-08T07:26:53;98041.56;;;7.20;90.84
71938;BME280;59810;48.800;9.086;2023-04-08T07:29:21;98046.28;;;7.25;90.03
71938;BME280;59810;48.800;9.086;2023-04-08T07:31:46;98049.56;;;7.27;89.55
71938;BME280;59810;48.800;9.086;2023-04-08T07:34:11;98049.13;;;7.30;89.02
71938;BME280;59810;48.800;9.086;2023-04-08T07:36:37;98053.63;;;7.36;88.72
71938;BME280;59810;48.800;9.086;2023-04-08T07:39:02;98046.75;;;7.40;88.14
71938;BME280;59810;48.800;9.086;2023-04-08T07:41:28;98049.63;;;7.45;87.52
71938;BME280;59810;48.800;9.086;2023-04-08T07:43:53;98048.16;;;7.49;87.33
71938;BME280;59810;48.800;9.086;2023-04-08T07:46:19;98054.94;;;7.52;87.78
71938;BME280;59810;48.800;9.086;2023-04-08T07:48:47;98061.31;;;7.57;87.45
71938;BME280;59810;48.800;9.086;2023-04-08T07:51:12;98053.78;;;7.66;85.67
71938;BME280;59810;48.800;9.086;2023-04-08T07:53:38;98062.81;;;7.71;84.51
71938;BME280;59810;48.800;9.086;2023-04-08T07:56:10;98062.44;;;7.68;85.88
71938;BME280;59810;48.800;9.086;2023-04-08T07:58:38;98058.28;;;7.72;86.29
71938;BME280;59810;48.800;9.086;2023-04-08T08:01:15;98054.66;;;7.85;84.42
71938;BME280;59810;48.800;9.086;2023-04-08T08:03:44;98060.78;;;7.92;82.97
71938;BME280;59810;48.800;9.086;2023-04-08T08:06:11;98050.63;;;7.94;82.81
71938;BME280;59810;48.800;9.086;2023-04-08T08:08:39;98060.56;;;8.11;81.90
71938;BME280;59810;48.800;9.086;2023-04-08T08:11:04;98057.00;;;8.18;80.00
71938;BME280;59810;48.800;9.086;2023-04-08T08:13:30;98064.97;;;8.24;80.80
71938;BME280;59810;48.800;9.086;2023-04-08T08:15:55;98066.34;;;8.33;80.59
71938;BME280;59810;48.800;9.086;2023-04-08T08:18:23;98071.16;;;8.50;78.63
71938;BME280;59810;48.800;9.086;2023-04-08T08:20:48;98064.72;;;8.51;78.65
71938;BME280;59810;48.800;9.086;2023-04-08T08:23:16;98074.94;;;8.42;80.03
71938;BME280;59810;48.800;9.086;2023-04-08T08:25:41;98075.53;;;8.62;79.53
71938;BME280;59810;48.800;9.086;2023-04-08T08:28:07;98079.41;;;8.66;78.18
71938;BME280;59810;48.800;9.086;2023-04-08T08:30:32;98078.28;;;8.74;77.35
71938;BME280;59810;48.800;9.086;2023-04-08T08:32:57;98078.28;;;8.74;77.33
71938;BME280;59810;48.800;9.086;2023-04-08T08:35:24;98081.66;;;8.69;77.98
71938;BME280;59810;48.800;9.086;2023-04-08T08:37:52;98086.34;;;8.74;78.09
71938;BME280;59810;48.800;9.086;2023-04-08T08:40:17;98086.94;;;8.76;78.50
71938;BME280;59810;48.800;9.086;2023-04-08T08:42:50;98084.69;;;8.91;75.76
71938;BME280;59810;48.800;9.086;2023-04-08T08:45:18;98089.09;;;8.86;76.67
71938;BME280;59810;48.800;9.086;2023-04-08T08:47:44;98091.56;;;8.87;75.81
71938;BME280;59810;48.800;9.086;2023-04-08T08:50:09;98083.28;;;8.89;75.84
71938;BME280;59810;48.800;9.086;2023-04-08T08:52:34;98090.78;;;8.98;74.31
71938;BME280;59810;48.800;9.086;2023-04-08T08:55:03;98090.81;;;9.10;73.77
71938;BME280;59810;48.800;9.086;2023-04-08T08:57:29;98093.50;;;9.10;74.21
71938;BME280;59810;48.800;9.086;2023-04-08T08:59:54;98096.03;;;9.23;72.55
71938;BME280;59810;48.800;9.086;2023-04-08T09:02:28;98097.44;;;9.26;72.32
71938;BME280;59810;48.800;9.086;2023-04-08T09:05:01;98092.53;;;9.23;71.79
71938;BME280;59810;48.800;9.086;2023-04-08T09:07:29;98099.09;;;9.27;73.38
71938;BME280;59810;48.800;9.086;2023-04-08T09:09:56;98097.00;;;9.29;73.18
71938;BME280;59810;48.800;9.086;2023-04-08T09:12:23;98094.09;;;9.42;71.63
71938;BME280;59810;48.800;9.086;2023-04-08T09:14:49;98098.69;;;9.53;72.03
71938;BME280;59810;48.800;9.086;2023-04-08T09:17:15;98101.84;;;9.50;70.46
71938;BME280;59810;48.800;9.086;2023-04-08T09:20:11;98109.94;;;9.50;70.17
71938;BME280;59810;48.800;9.086;2023-04-08T09:22:57;98111.94;;;9.55;70.92
71938;BME280;59810;48.800;9.086;2023-04-08T09:27:49;98099.53;;;9.65;72.34
71938;BME280;59810;48.800;9.086;2023-04-08T09:30:16;98103.66;;;9.80;69.70
71938;BME280;59810;48.800;9.086;2023-04-08T09:32:52;98105.25;;;9.57;69.43
71938;BME280;59810;48.800;9.086;2023-04-08T09:35:21;98107.16;;;9.68;70.15
71938;BME280;59810;48.800;9.086;2023-04-08T09:37:51;98102.25;;;9.77;71.06
71938;BME280;59810;48.800;9.086;2023-04-08T09:40:17;98111.88;;;9.96;67.89
71938;BME280;59810;48.800;9.086;2023-04-08T09:42:47;98119.50;;;9.99;66.92
71938;BME280;59810;48.800;9.086;2023-04-08T09:45:16;98111.16;;;9.89;66.24
71938;BME280;59810;48.800;9.086;2023-04-08T09:47:55;98107.28;;;9.74;66.15
71938;BME280;59810;48.800;9.086;2023-04-08T09:50:31;98106.59;;;10.02;67.10
71938;BME280;59810;48.800;9.086;2023-04-08T09:55:59;98106.63;;;10.25;64.91
71938;BME280;59810;48.800;9.086;2023-04-08T09:58:59;98101.44;;;10.35;63.67
71938;BME280;59810;48.800;9.086;2023-04-08T10:01:44;98109.78;;;10.45;64.87
71938;BME280;59810;48.800;9.086;2023-04-08T10:04:14;98107.66;;;10.36;60.18
71938;BME280;59810;48.800;9.086;2023-04-08T10:06:44;98103.00;;;10.71;62.99
71938;BME280;59810;48.800;9.086;2023-04-08T10:09:12;98114.88;;;10.70;61.50
71938;BME280;59810;48.800;9.086;2023-04-08T10:11:38;98104.00;;;10.94;61.02
71938;BME280;59810;48.800;9.086;2023-04-08T10:14:04;98109.16;;;11.07;61.49
71938;BME280;59810;48.800;9.086;2023-04-08T10:16:29;98118.28;;;11.34;58.40
71938;BME280;59810;48.800;9.086;2023-04-08T10:18:55;98113.53;;;11.25;58.27
71938;BME280;59810;48.800;9.086;2023-04-08T10:21:40;98109.03;;;11.02;59.39
71938;BME280;59810;48.800;9.086;2023-04-08T10:24:12;98111.13;;;11.11;61.48
71938;BME280;59810;48.800;9.086;2023-04-08T10:26:42;98101.66;;;11.26;61.31
71938;BME280;59810;48.800;9.086;2023-04-08T10:31:46;98102.13;;;10.94;58.67
71938;BME280;59810;48.800;9.086;2023-04-08T10:34:29;98099.44;;;10.94;57.05
71938;BME280;59810;48.800;9.086;2023-04-08T10:36:57;98110.78;;;10.68;59.20
71938;BME280;59810;48.800;9.086;2023-04-08T10:39:26;98101.41;;;10.58;60.50
71938;BME280;59810;48.800;9.086;2023-04-08T10:41:51;98106.19;;;10.68;59.84
71938;BME280;59810;48.800;9.086;2023-04-08T10:44:26;98104.47;;;10.39;57.37
71938;BME280;59810;48.800;9.086;2023-04-08T10:46:52;98109.19;;;10.43;57.27
71938;BME280;59810;48.800;9.086;2023-04-08T10:49:20;98114.13;;;10.23;55.81
71938;BME280;59810;48.800;9.086;2023-04-08T10:51:46;98107.69;;;10.24;55.90
71938;BME280;59810;48.800;9.086;2023-04-08T10:54:16;98110.03;;;10.20;57.62
71938;BME280;59810;48.800;9.086;2023-04-08T10:59:10;98107.19;;;10.15;54.96
71938;BME280;59810;48.800;9.086;2023-04-08T11:01:47;98109.31;;;10.13;55.32
71938;BME280;59810;48.800;9.086;2023-04-08T11:04:13;98109.06;;;10.03;55.97
71938;BME280;59810;48.800;9.086;2023-04-08T11:06:41;98110.22;;;9.95;57.05
71938;BME280;59810;48.800;9.086;2023-04-08T11:09:06;98110.56;;;9.99;58.26
71938;BME280;59810;48.800;9.086;2023-04-08T11:11:47;98111.63;;;9.98;57.53
71938;BME280;59810;48.800;9.086;2023-04-08T11:14:13;98110.94;;;10.03;59.78
71938;BME280;59810;48.800;9.086;2023-04-08T11:16:41;98105.41;;;9.97;60.34
71938;BME280;59810;48.800;9.086;2023-04-08T11:19:09;98113.75;;;10.08;59.78
71938;BME280;59810;48.800;9.086;2023-04-08T11:21:35;98103.91;;;9.90;58.97
71938;BME280;59810;48.800;9.086;2023-04-08T11:24:05;98106.34;;;10.03;60.91
71938;BME280;59810;48.800;9.086;2023-04-08T11:26:31;98104.72;;;10.02;58.55
71938;BME280;59810;48.800;9.086;2023-04-08T11:28:57;98110.22;;;9.95;58.58
71938;BME280;59810;48.800;9.086;2023-04-08T11:31:22;98111.16;;;10.01;58.38
71938;BME280;59810;48.800;9.086;2023-04-08T11:33:48;98110.09;;;10.02;57.63
71938;BME280;59810;48.800;9.086;2023-04-08T11:36:19;98108.97;;;10.10;58.33
71938;BME280;59810;48.800;9.086;2023-04-08T11:38:46;98101.78;;;9.92;59.13
71938;BME280;59810;48.800;9.086;2023-04-08T11:41:12;98107.31;;;10.09;58.89
71938;BME280;59810;48.800;9.086;2023-04-08T11:43:38;98099.19;;;9.97;58.04
71938;BME280;59810;48.800;9.086;2023-04-08T11:46:09;98103.66;;;10.03;58.76
71938;BME280;59810;48.800;9.086;2023-04-08T11:48:35;98096.53;;;10.09;58.27
71938;BME280;59810;48.800;9.086;2023-04-08T11:51:03;98095.22;;;10.11;57.55
71938;BME280;59810;48.800;9.086;2023-04-08T11:53:33;98097.56;;;10.19;56.50
71938;BME280;59810;48.800;9.086;2023-04-08T11:56:15;98092.38;;;10.06;59.08
71938;BME280;59810;48.800;9.086;2023-04-08T11:58:40;98097.22;;;10.16;60.16
71938;BME280;59810;48.800;9.086;2023-04-08T12:01:05;98099.81;;;10.22;58.18
71938;BME280;59810;48.800;9.086;2023-04-08T12:03:32;98093.00;;;10.20;58.69
71938;BME280;59810;48.800;9.086;2023-04-08T12:05:57;98099.09;;;10.15;57.72
71938;BME280;59810;48.800;9.086;2023-04-08T12:08:23;98102.88;;;10.26;58.70
71938;BME280;59810;48.800;9.086;2023-04-08T12:10:49;98101.91;;;10.32;57.16
71938;BME280;59810;48.800;9.086;2023-04-08T12:13:14;98106.63;;;10.25;57.50
71938;BME280;59810;48.800;9.086;2023-04-08T12:15:39;98110.94;;;10.14;58.13
71938;BME280;59810;48.800;9.086;2023-04-08T12:18:08;98100.88;;;10.21;59.04
71938;BME280;59810;48.800;9.086;2023-04-08T12:20:33;98106.97;;;10.17;59.48
71938;BME280;59810;48.800;9.086;2023-04-08T12:23:14;98100.25;;;10.19;58.32
71938;BME280;59810;48.800;9.086;2023-04-08T12:25:40;98108.34;;;10.19;59.25
71938;BME280;59810;48.800;9.086;2023-04-08T12:28:05;98103.91;;;10.13;60.68
71938;BME280;59810;48.800;9.086;2023-04-08T12:30:31;98101.31;;;10.07;60.43
71938;BME280;59810;48.800;9.086;2023-04-08T12:32:57;98115.19;;;10.10;59.99
71938;BME280;59810;48.800;9.086;2023-04-08T12:35:22;98119.50;;;10.11;59.29
71938;BME280;59810;48.800;9.086;2023-04-08T12:37:47;98109.41;;;10.18;60.25
71938;BME280;59810;48.800;9.086;2023-04-08T12:40:17;98113.75;;;9.96;59.08
71938;BME280;59810;48.800;9.086;2023-04-08T12:42:43;98106.34;;;9.91;59.15
71938;BME280;59810;48.800;9.086;2023-04-08T12:45:10;98107.53;;;9.84;58.96
71938;BME280;59810;48.800;9.086;2023-04-08T12:47:36;98110.91;;;9.67;60.26
71938;BME280;59810;48.800;9.086;2023-04-08T12:50:01;98113.59;;;9.67;60.61
71938;BME280;59810;48.800;9.086;2023-04-08T12:52:27;98116.53;;;9.66;60.79
71938;BME280;59810;48.800;9.086;2023-04-08T12:54:52;98111.00;;;9.73;61.38
71938;BME280;59810;48.800;9.086;2023-04-08T12:57:17;98116.31;;;9.79;62.20
71938;BME280;59810;48.800;9.086;2023-04-08T12:59:43;98106.47;;;9.85;61.89
71938;BME280;59810;48.800;9.086;2023-04-08T13:02:10;98107.41;;;9.79;60.18
71938;BME280;59810;48.800;9.086;2023-04-08T13:04:36;98107.66;;;9.77;59.17
71938;BME280;59810;48.800;9.086;2023-04-08T13:07:01;98106.94;;;9.82;59.84
71938;BME280;59810;48.800;9.086;2023-04-08T13:09:28;98099.22;;;9.85;60.27
71938;BME280;59810;48.800;9.086;2023-04-08T13:11:54;98106.47;;;9.85;60.74
71938;BME280;59810;48.800;9.086;2023-04-08T13:14:20;98108.78;;;9.70;58.62
71938;BME280;59810;48.800;9.086;2023-04-08T13:16:46;98105.31;;;9.81;58.36
71938;BME280;59810;48.800;9.086;2023-04-08T13:19:12;98111.72;;;9.68;59.07
71938;BME280;59810;48.800;9.086;2023-04-08T13:21:37;98104.91;;;9.65;60.36
71938;BME280;59810;48.800;9.086;2023-04-08T13:24:02;98106.22;;;9.75;60.52
71938;BME280;59810;48.800;9.086;2023-04-08T13:26:28;98102.38;;;9.82;60.81
71938;BME280;59810;48.800;9.086;2023-04-08T13:28:53;98106.44;;;9.73;59.63